Airfield :
LOGIN :

Register | Disclaimer

   EN    FR    IT 

 










Legend :    VFR   Marginal VFR   IFR   Intensive IFR   Very Intensive IFR
Visi :
Ceiling :
>= 8 km
>= 3000ft
5 to 8 km
1000 to 3000 ft
1500m to 5 km
500 to 1000 ft
800 to 1500m
200 to 500 ft
< 800m
< 200 ft
Symbols :   Thunderstorms  Fog  Heavy snow  Heavy precipitations  Wind > 20 kt
SIGMETs :     Misc.  Thunderstorms  Icing  Turbulence  Mountain Waves  Volcanic Ashes






- Airport Elevation : 194 ft


EBCV - Chièvres

CURRENT METAR :
  • 180655Z AUTO 21015KT 9999 BKN024/// 13/11 Q1003 WHT

EXPIRED METARs :
  • 180647Z AUTO 20013KT 5000 -RA FEW025/// OVC062/// 13/11 Q1003 WHT
  • 180625Z AUTO 19016KT 9999 -RA FEW014/// OVC066/// 13/11 Q1003 BLU
  • 180555Z AUTO 19016KT 9999 -RA BKN020/// BKN050/// 13/11 Q1003 WHT
  • 180525Z AUTO 18014KT 9999 FEW018/// BKN063/// BKN100/// 13/11 Q1003 BLU
  • 180507Z AUTO 19013KT 9999 FEW016/// BKN020/// BKN067/// 13/11 Q1004 WHT
  • 180455Z AUTO 19013KT 9999 FEW016/// BKN072/// 13/11 Q1004 BLU
  • 180447Z AUTO 19012KT 9999 FEW017/// SCT072/// BKN079/// 13/11 Q1004 BLU
  • 180425Z AUTO 18012KT 9999 SCT017/// 13/11 Q1004 WHT

TAF TAF EBCV
Valid from the 18 at 07:00 until the 18 at 16:00 UTC


180541Z 1807/1816 19013KT 9999 FEW015 SCT025
TEMPO 1807/1816 5000 -SHRA SCT015 BKN020
PROB30
TEMPO 1807/1809 20018G32KT 3000 +SHRA FEW005 BKN012TCU
BECMG 1810/1812 21016G26KT FEW030 BY EBWM



MET'MAP, your aeronautical weather chart ! - Copyright ORBIFLY December 2007 - Disclaimer

ORBIFLY MET'MAP TEAM :

Programming & Development : Alexandra Zaïnal
Concept & Development : Baudouin d'Aumeries
Co-Development & Prog : Marc-Olivier Méhu
Technical & hardware support : Manuel Goepfert

Contact : metmap@orbifly.com




SOURCES & CREDITS :

   NOAA